sensor_id;sensor_type;location;lat;lon;timestamp;pressure;altitude;pressure_sealevel;temperature;humidity
22580;BME280;11456;47.030;15.396;2023-03-31T00:00:52;97267.00;;;9.24;95.56
22580;BME280;11456;47.030;15.396;2023-03-31T00:03:19;97265.75;;;9.54;95.75
22580;BME280;11456;47.030;15.396;2023-03-31T00:05:53;97270.69;;;9.41;96.83
22580;BME280;11456;47.030;15.396;2023-03-31T00:08:20;97270.69;;;9.23;95.44
22580;BME280;11456;47.030;15.396;2023-03-31T00:10:47;97267.63;;;9.01;95.61
22580;BME280;11456;47.030;15.396;2023-03-31T00:13:13;97270.53;;;8.90;95.78
22580;BME280;11456;47.030;15.396;2023-03-31T00:15:40;97279.34;;;9.00;97.05
22580;BME280;11456;47.030;15.396;2023-03-31T00:18:07;97275.91;;;8.90;96.67
22580;BME280;11456;47.030;15.396;2023-03-31T00:20:33;97278.34;;;9.01;95.28
22580;BME280;11456;47.030;15.396;2023-03-31T00:23:03;97277.88;;;8.88;96.95
22580;BME280;11456;47.030;15.396;2023-03-31T00:25:39;97286.06;;;8.86;97.67
22580;BME280;11456;47.030;15.396;2023-03-31T00:28:08;97274.50;;;8.85;97.48
22580;BME280;11456;47.030;15.396;2023-03-31T00:30:35;97272.56;;;8.78;97.00
22580;BME280;11456;47.030;15.396;2023-03-31T00:33:02;97269.56;;;8.63;96.60
22580;BME280;11456;47.030;15.396;2023-03-31T00:35:29;97273.25;;;8.53;97.36
22580;BME280;11456;47.030;15.396;2023-03-31T00:37:57;97281.97;;;8.37;98.35
22580;BME280;11456;47.030;15.396;2023-03-31T00:40:24;97281.88;;;8.19;99.50
22580;BME280;11456;47.030;15.396;2023-03-31T00:42:51;97282.63;;;8.39;98.61
22580;BME280;11456;47.030;15.396;2023-03-31T00:45:24;97292.88;;;8.16;97.83
22580;BME280;11456;47.030;15.396;2023-03-31T00:47:54;97286.19;;;8.30;97.36
22580;BME280;11456;47.030;15.396;2023-03-31T00:50:26;97292.69;;;8.37;97.32
22580;BME280;11456;47.030;15.396;2023-03-31T00:52:56;97291.50;;;8.02;98.76
22580;BME280;11456;47.030;15.396;2023-03-31T00:55:26;97285.66;;;8.17;98.08
22580;BME280;11456;47.030;15.396;2023-03-31T00:57:53;97288.34;;;8.17;98.94
22580;BME280;11456;47.030;15.396;2023-03-31T01:00:20;97289.00;;;8.28;99.47
22580;BME280;11456;47.030;15.396;2023-03-31T01:02:50;97283.78;;;8.36;99.50
22580;BME280;11456;47.030;15.396;2023-03-31T01:05:22;97277.28;;;8.39;100.00
22580;BME280;11456;47.030;15.396;2023-03-31T01:07:49;97278.78;;;8.51;100.00
22580;BME280;11456;47.030;15.396;2023-03-31T01:10:17;97279.44;;;8.63;99.37
22580;BME280;11456;47.030;15.396;2023-03-31T01:12:48;97275.56;;;8.93;97.30
22580;BME280;11456;47.030;15.396;2023-03-31T01:15:15;97263.69;;;9.48;93.11
22580;BME280;11456;47.030;15.396;2023-03-31T01:17:42;97254.56;;;9.06;96.01
22580;BME280;11456;47.030;15.396;2023-03-31T01:20:23;97244.06;;;9.12;94.71
22580;BME280;11456;47.030;15.396;2023-03-31T01:23:10;97247.75;;;8.66;98.17
22580;BME280;11456;47.030;15.396;2023-03-31T01:26:02;97256.63;;;8.49;99.87
22580;BME280;11456;47.030;15.396;2023-03-31T01:31:25;97238.44;;;8.70;99.01
22580;BME280;11456;47.030;15.396;2023-03-31T01:42:16;97231.88;;;8.55;99.64
22580;BME280;11456;47.030;15.396;2023-03-31T01:47:40;97234.13;;;8.23;99.39
22580;BME280;11456;47.030;15.396;2023-03-31T01:52:42;97226.72;;;8.44;99.39
22580;BME280;11456;47.030;15.396;2023-03-31T01:55:17;97223.06;;;8.26;99.64
22580;BME280;11456;47.030;15.396;2023-03-31T01:57:48;97225.09;;;8.24;100.00
22580;BME280;11456;47.030;15.396;2023-03-31T02:00:17;97215.59;;;8.29;99.62
22580;BME280;11456;47.030;15.396;2023-03-31T02:02:48;97207.75;;;8.18;99.38
22580;BME280;11456;47.030;15.396;2023-03-31T02:05:21;97189.50;;;8.22;98.96
22580;BME280;11456;47.030;15.396;2023-03-31T02:07:55;97195.25;;;8.27;98.99
22580;BME280;11456;47.030;15.396;2023-03-31T02:10:24;97193.66;;;8.06;97.96
22580;BME280;11456;47.030;15.396;2023-03-31T02:12:56;97178.84;;;8.12;98.21
22580;BME280;11456;47.030;15.396;2023-03-31T02:15:25;97188.13;;;8.18;97.69
22580;BME280;11456;47.030;15.396;2023-03-31T02:17:54;97189.19;;;7.97;98.44
22580;BME280;11456;47.030;15.396;2023-03-31T02:20:23;97195.03;;;7.83;99.66
22580;BME280;11456;47.030;15.396;2023-03-31T02:22:54;97195.63;;;7.77;98.55
22580;BME280;11456;47.030;15.396;2023-03-31T02:25:22;97199.47;;;7.65;97.78
22580;BME280;11456;47.030;15.396;2023-03-31T02:27:59;97197.06;;;7.62;98.05
22580;BME280;11456;47.030;15.396;2023-03-31T02:30:29;97188.94;;;7.54;97.96
22580;BME280;11456;47.030;15.396;2023-03-31T02:32:58;97189.19;;;7.51;97.46
22580;BME280;11456;47.030;15.396;2023-03-31T02:35:25;97187.53;;;7.31;96.92
22580;BME280;11456;47.030;15.396;2023-03-31T02:37:55;97194.03;;;7.38;96.96
22580;BME280;11456;47.030;15.396;2023-03-31T02:40:24;97193.38;;;7.16;97.87
22580;BME280;11456;47.030;15.396;2023-03-31T02:42:53;97193.19;;;7.18;97.28
22580;BME280;11456;47.030;15.396;2023-03-31T02:48:06;97184.47;;;7.25;98.02
22580;BME280;11456;47.030;15.396;2023-03-31T02:50:42;97196.03;;;7.16;97.43
22580;BME280;11456;47.030;15.396;2023-03-31T02:53:16;97196.59;;;7.01;99.34
22580;BME280;11456;47.030;15.396;2023-03-31T03:01:31;97190.53;;;6.70;97.61
22580;BME280;11456;47.030;15.396;2023-03-31T03:09:40;97183.94;;;6.64;98.93
22580;BME280;11456;47.030;15.396;2023-03-31T03:12:21;97191.78;;;6.66;99.76
22580;BME280;11456;47.030;15.396;2023-03-31T03:14:51;97183.22;;;6.62;99.35
22580;BME280;11456;47.030;15.396;2023-03-31T03:17:26;97176.59;;;6.76;97.62
22580;BME280;11456;47.030;15.396;2023-03-31T03:19:54;97179.25;;;6.57;98.07
22580;BME280;11456;47.030;15.396;2023-03-31T03:22:22;97188.69;;;6.61;97.92
22580;BME280;11456;47.030;15.396;2023-03-31T03:24:48;97183.59;;;6.48;97.12
22580;BME280;11456;47.030;15.396;2023-03-31T03:27:16;97178.38;;;6.47;97.79
22580;BME280;11456;47.030;15.396;2023-03-31T03:29:42;97181.63;;;6.40;97.87
22580;BME280;11456;47.030;15.396;2023-03-31T03:32:09;97179.66;;;6.42;98.51
22580;BME280;11456;47.030;15.396;2023-03-31T03:34:36;97169.94;;;6.32;98.27
22580;BME280;11456;47.030;15.396;2023-03-31T03:37:03;97171.72;;;6.12;99.83
22580;BME280;11456;47.030;15.396;2023-03-31T03:39:29;97163.28;;;6.07;100.00
22580;BME280;11456;47.030;15.396;2023-03-31T03:41:56;97164.41;;;6.14;99.99
22580;BME280;11456;47.030;15.396;2023-03-31T03:44:23;97160.59;;;6.17;100.00
22580;BME280;11456;47.030;15.396;2023-03-31T03:46:49;97154.59;;;6.24;99.73
22580;BME280;11456;47.030;15.396;2023-03-31T03:49:16;97152.94;;;6.52;98.85
22580;BME280;11456;47.030;15.396;2023-03-31T03:51:43;97142.22;;;7.00;94.17
22580;BME280;11456;47.030;15.396;2023-03-31T03:54:09;97148.38;;;6.24;97.49
22580;BME280;11456;47.030;15.396;2023-03-31T03:56:36;97158.53;;;6.20;98.69
22580;BME280;11456;47.030;15.396;2023-03-31T03:59:02;97144.44;;;6.18;98.77
22580;BME280;11456;47.030;15.396;2023-03-31T04:01:29;97159.22;;;6.22;99.42
22580;BME280;11456;47.030;15.396;2023-03-31T04:03:55;97155.84;;;6.20;97.70
22580;BME280;11456;47.030;15.396;2023-03-31T04:06:22;97153.13;;;6.01;98.57
22580;BME280;11456;47.030;15.396;2023-03-31T04:08:48;97151.47;;;6.19;100.00
22580;BME280;11456;47.030;15.396;2023-03-31T04:11:16;97145.88;;;6.41;100.00
22580;BME280;11456;47.030;15.396;2023-03-31T04:13:44;97132.75;;;6.19;100.00
22580;BME280;11456;47.030;15.396;2023-03-31T04:16:11;97128.09;;;6.21;99.78
22580;BME280;11456;47.030;15.396;2023-03-31T04:18:38;97120.38;;;6.18;99.50
22580;BME280;11456;47.030;15.396;2023-03-31T04:21:09;97133.75;;;6.18;99.21
22580;BME280;11456;47.030;15.396;2023-03-31T04:23:38;97130.09;;;6.19;99.19
22580;BME280;11456;47.030;15.396;2023-03-31T04:26:08;97138.78;;;6.21;99.65
22580;BME280;11456;47.030;15.396;2023-03-31T04:28:35;97134.88;;;6.25;99.90
22580;BME280;11456;47.030;15.396;2023-03-31T04:31:02;97133.78;;;6.37;100.00
22580;BME280;11456;47.030;15.396;2023-03-31T04:33:31;97128.72;;;6.44;100.00
22580;BME280;11456;47.030;15.396;2023-03-31T04:36:04;97128.66;;;6.15;100.00
22580;BME280;11456;47.030;15.396;2023-03-31T04:38:43;97117.28;;;6.13;100.00
22580;BME280;11456;47.030;15.396;2023-03-31T04:41:12;97112.38;;;6.37;100.00
22580;BME280;11456;47.030;15.396;2023-03-31T04:43:39;97112.38;;;6.57;100.00
22580;BME280;11456;47.030;15.396;2023-03-31T04:46:06;97114.50;;;6.43;100.00
22580;BME280;11456;47.030;15.396;2023-03-31T04:48:33;97103.38;;;6.38;100.00
22580;BME280;11456;47.030;15.396;2023-03-31T04:50:59;97103.66;;;6.55;100.00
22580;BME280;11456;47.030;15.396;2023-03-31T04:53:26;97089.28;;;6.56;100.00
22580;BME280;11456;47.030;15.396;2023-03-31T04:55:52;97088.47;;;6.65;100.00
22580;BME280;11456;47.030;15.396;2023-03-31T04:58:19;97099.44;;;6.62;100.00
22580;BME280;11456;47.030;15.396;2023-03-31T05:00:45;97107.03;;;6.76;100.00
22580;BME280;11456;47.030;15.396;2023-03-31T05:03:12;97103.38;;;6.77;100.00
22580;BME280;11456;47.030;15.396;2023-03-31T05:05:38;97100.69;;;6.77;100.00
22580;BME280;11456;47.030;15.396;2023-03-31T05:08:05;97094.38;;;6.78;100.00
22580;BME280;11456;47.030;15.396;2023-03-31T05:10:32;97096.00;;;6.98;100.00
22580;BME280;11456;47.030;15.396;2023-03-31T05:12:58;97086.97;;;7.09;100.00
22580;BME280;11456;47.030;15.396;2023-03-31T05:15:25;97084.72;;;7.04;100.00
22580;BME280;11456;47.030;15.396;2023-03-31T05:17:51;97095.94;;;7.17;100.00
22580;BME280;11456;47.030;15.396;2023-03-31T05:20:18;97083.69;;;7.24;100.00
22580;BME280;11456;47.030;15.396;2023-03-31T05:22:45;97086.25;;;7.16;100.00
22580;BME280;11456;47.030;15.396;2023-03-31T05:25:12;97089.22;;;7.13;100.00
22580;BME280;11456;47.030;15.396;2023-03-31T05:27:44;97084.66;;;7.23;100.00
22580;BME280;11456;47.030;15.396;2023-03-31T05:30:13;97095.03;;;7.36;100.00
22580;BME280;11456;47.030;15.396;2023-03-31T05:32:39;97083.59;;;7.44;100.00
22580;BME280;11456;47.030;15.396;2023-03-31T05:35:06;97078.38;;;7.52;100.00
22580;BME280;11456;47.030;15.396;2023-03-31T05:37:33;97073.78;;;7.62;100.00
22580;BME280;11456;47.030;15.396;2023-03-31T05:39:59;97070.72;;;7.57;100.00
22580;BME280;11456;47.030;15.396;2023-03-31T05:42:26;97069.25;;;7.72;100.00
22580;BME280;11456;47.030;15.396;2023-03-31T05:44:52;97057.69;;;8.17;100.00
22580;BME280;11456;47.030;15.396;2023-03-31T05:47:19;97060.41;;;7.89;99.85
22580;BME280;11456;47.030;15.396;2023-03-31T05:49:46;97052.75;;;7.94;100.00
22580;BME280;11456;47.030;15.396;2023-03-31T05:52:12;97051.94;;;8.12;100.00
22580;BME280;11456;47.030;15.396;2023-03-31T05:54:39;97046.00;;;7.90;100.00
22580;BME280;11456;47.030;15.396;2023-03-31T05:57:07;97039.75;;;7.99;100.00
22580;BME280;11456;47.030;15.396;2023-03-31T05:59:34;97040.81;;;8.06;100.00
22580;BME280;11456;47.030;15.396;2023-03-31T06:02:01;97035.28;;;8.08;100.00
22580;BME280;11456;47.030;15.396;2023-03-31T06:04:28;97020.84;;;8.19;100.00
22580;BME280;11456;47.030;15.396;2023-03-31T06:06:56;97012.00;;;8.09;100.00
22580;BME280;11456;47.030;15.396;2023-03-31T06:09:23;97006.25;;;8.03;100.00
22580;BME280;11456;47.030;15.396;2023-03-31T06:11:50;96999.22;;;8.02;100.00
22580;BME280;11456;47.030;15.396;2023-03-31T06:14:17;97002.50;;;7.96;100.00
22580;BME280;11456;47.030;15.396;2023-03-31T06:16:43;97005.56;;;8.01;100.00
22580;BME280;11456;47.030;15.396;2023-03-31T06:19:13;96995.91;;;8.09;100.00
22580;BME280;11456;47.030;15.396;2023-03-31T06:21:39;96982.28;;;8.81;96.81
22580;BME280;11456;47.030;15.396;2023-03-31T06:24:07;96979.84;;;8.44;98.53
22580;BME280;11456;47.030;15.396;2023-03-31T06:26:34;96970.72;;;8.19;99.58
22580;BME280;11456;47.030;15.396;2023-03-31T06:29:01;96981.28;;;8.21;100.00
22580;BME280;11456;47.030;15.396;2023-03-31T06:31:27;96980.28;;;8.22;100.00
22580;BME280;11456;47.030;15.396;2023-03-31T06:33:54;96982.06;;;8.49;100.00
22580;BME280;11456;47.030;15.396;2023-03-31T06:36:21;96982.75;;;8.33;99.90
22580;BME280;11456;47.030;15.396;2023-03-31T06:38:48;96973.97;;;8.66;99.74
22580;BME280;11456;47.030;15.396;2023-03-31T06:41:15;96968.22;;;8.61;99.07
22580;BME280;11456;47.030;15.396;2023-03-31T06:43:42;96968.41;;;8.42;100.00
22580;BME280;11456;47.030;15.396;2023-03-31T06:46:09;96969.22;;;8.60;100.00
22580;BME280;11456;47.030;15.396;2023-03-31T06:48:38;96968.72;;;9.08;99.61
22580;BME280;11456;47.030;15.396;2023-03-31T06:51:05;96959.44;;;9.95;97.38
22580;BME280;11456;47.030;15.396;2023-03-31T06:53:32;96952.09;;;10.37;94.23
22580;BME280;11456;47.030;15.396;2023-03-31T06:55:59;96956.97;;;10.50;91.82
22580;BME280;11456;47.030;15.396;2023-03-31T06:58:25;96957.31;;;10.47;91.55
22580;BME280;11456;47.030;15.396;2023-03-31T07:00:55;96958.47;;;10.77;89.93
22580;BME280;11456;47.030;15.396;2023-03-31T07:03:22;96947.50;;;11.42;85.13
22580;BME280;11456;47.030;15.396;2023-03-31T07:05:51;96945.63;;;11.89;82.15
22580;BME280;11456;47.030;15.396;2023-03-31T07:08:17;96946.47;;;11.51;83.23
22580;BME280;11456;47.030;15.396;2023-03-31T07:10:45;96936.34;;;12.15;82.65
22580;BME280;11456;47.030;15.396;2023-03-31T07:13:14;96925.75;;;12.73;78.59
22580;BME280;11456;47.030;15.396;2023-03-31T07:15:41;96917.84;;;12.87;76.98
22580;BME280;11456;47.030;15.396;2023-03-31T07:18:08;96915.75;;;12.36;77.29
22580;BME280;11456;47.030;15.396;2023-03-31T07:20:35;96903.91;;;12.60;77.11
22580;BME280;11456;47.030;15.396;2023-03-31T07:23:04;96906.84;;;12.73;75.80
22580;BME280;11456;47.030;15.396;2023-03-31T07:25:31;96920.25;;;12.81;74.47
22580;BME280;11456;47.030;15.396;2023-03-31T07:27:58;96906.28;;;12.40;75.38
22580;BME280;11456;47.030;15.396;2023-03-31T07:30:24;96897.94;;;13.17;73.92
22580;BME280;11456;47.030;15.396;2023-03-31T07:32:51;96909.81;;;13.67;70.50
22580;BME280;11456;47.030;15.396;2023-03-31T07:35:18;96913.09;;;13.62;72.05
22580;BME280;11456;47.030;15.396;2023-03-31T07:37:45;96901.50;;;14.68;67.59
22580;BME280;11456;47.030;15.396;2023-03-31T07:40:13;96896.47;;;14.01;69.64
22580;BME280;11456;47.030;15.396;2023-03-31T07:42:43;96905.88;;;14.69;67.33
22580;BME280;11456;47.030;15.396;2023-03-31T07:45:15;96907.91;;;16.04;62.36
22580;BME280;11456;47.030;15.396;2023-03-31T07:47:42;96898.16;;;16.30;57.77
22580;BME280;11456;47.030;15.396;2023-03-31T07:50:10;96893.44;;;15.84;57.59
22580;BME280;11456;47.030;15.396;2023-03-31T07:52:36;96882.72;;;15.29;59.36
22580;BME280;11456;47.030;15.396;2023-03-31T07:55:04;96875.31;;;15.09;59.24
22580;BME280;11456;47.030;15.396;2023-03-31T07:57:31;96885.28;;;14.47;61.34
22580;BME280;11456;47.030;15.396;2023-03-31T07:59:57;96885.00;;;14.41;60.62
22580;BME280;11456;47.030;15.396;2023-03-31T08:02:24;96884.34;;;13.97;62.73
22580;BME280;11456;47.030;15.396;2023-03-31T08:04:51;96878.56;;;14.42;63.08
22580;BME280;11456;47.030;15.396;2023-03-31T08:07:17;96875.31;;;14.54;62.17
22580;BME280;11456;47.030;15.396;2023-03-31T08:09:44;96872.50;;;15.31;60.96
22580;BME280;11456;47.030;15.396;2023-03-31T08:12:11;96859.94;;;15.16;60.81
22580;BME280;11456;47.030;15.396;2023-03-31T08:14:38;96857.66;;;15.27;61.31
22580;BME280;11456;47.030;15.396;2023-03-31T08:17:08;96855.13;;;15.59;59.65
22580;BME280;11456;47.030;15.396;2023-03-31T08:19:34;96834.34;;;15.80;59.19
22580;BME280;11456;47.030;15.396;2023-03-31T08:22:01;96848.84;;;15.52;59.33
22580;BME280;11456;47.030;15.396;2023-03-31T08:24:28;96844.75;;;15.76;57.60
22580;BME280;11456;47.030;15.396;2023-03-31T08:26:54;96843.56;;;15.98;58.67
22580;BME280;11456;47.030;15.396;2023-03-31T08:29:21;96830.63;;;16.86;54.22
22580;BME280;11456;47.030;15.396;2023-03-31T08:31:47;96826.97;;;17.83;52.01
22580;BME280;11456;47.030;15.396;2023-03-31T08:34:14;96821.28;;;18.22;50.45
22580;BME280;11456;47.030;15.396;2023-03-31T08:36:40;96815.31;;;18.88;49.71
22580;BME280;11456;47.030;15.396;2023-03-31T08:39:07;96807.44;;;18.98;46.90
22580;BME280;11456;47.030;15.396;2023-03-31T08:44:38;96799.69;;;18.46;46.08
22580;BME280;11456;47.030;15.396;2023-03-31T08:47:09;96804.94;;;18.22;46.33
22580;BME280;11456;47.030;15.396;2023-03-31T08:49:41;96800.53;;;17.90;47.49
22580;BME280;11456;47.030;15.396;2023-03-31T08:52:11;96792.53;;;17.95;49.74
22580;BME280;11456;47.030;15.396;2023-03-31T08:54:40;96788.72;;;19.38;46.16
22580;BME280;11456;47.030;15.396;2023-03-31T08:57:15;96775.75;;;18.97;44.76
22580;BME280;11456;47.030;15.396;2023-03-31T08:59:42;96774.50;;;19.66;42.14
22580;BME280;11456;47.030;15.396;2023-03-31T09:15:27;96713.69;;;18.00;43.53
22580;BME280;11456;47.030;15.396;2023-03-31T09:17:54;96720.06;;;17.18;46.90
22580;BME280;11456;47.030;15.396;2023-03-31T09:22:51;96717.81;;;18.59;45.62
22580;BME280;11456;47.030;15.396;2023-03-31T09:25:24;96716.13;;;19.31;43.26
22580;BME280;11456;47.030;15.396;2023-03-31T09:27:51;96712.13;;;20.05;42.03
22580;BME280;11456;47.030;15.396;2023-03-31T09:30:28;96713.38;;;20.20;41.78
22580;BME280;11456;47.030;15.396;2023-03-31T09:33:12;96710.19;;;19.34;41.30
22580;BME280;11456;47.030;15.396;2023-03-31T09:35:40;96716.81;;;19.74;40.83
22580;BME280;11456;47.030;15.396;2023-03-31T09:38:11;96702.84;;;19.52;40.48
22580;BME280;11456;47.030;15.396;2023-03-31T09:40:38;96691.25;;;19.57;42.00
22580;BME280;11456;47.030;15.396;2023-03-31T09:43:05;96685.59;;;20.35;40.42
22580;BME280;11456;47.030;15.396;2023-03-31T09:45:33;96671.50;;;19.96;39.13
22580;BME280;11456;47.030;15.396;2023-03-31T09:48:01;96671.31;;;20.33;40.11
22580;BME280;11456;47.030;15.396;2023-03-31T09:50:28;96674.34;;;20.01;40.78
22580;BME280;11456;47.030;15.396;2023-03-31T09:52:56;96674.53;;;19.65;42.78
22580;BME280;11456;47.030;15.396;2023-03-31T09:55:40;96692.44;;;20.26;39.86
22580;BME280;11456;47.030;15.396;2023-03-31T09:58:12;96690.34;;;19.45;41.26
22580;BME280;11456;47.030;15.396;2023-03-31T10:00:39;96677.63;;;20.45;39.60
22580;BME280;11456;47.030;15.396;2023-03-31T10:03:09;96657.97;;;20.25;39.79
22580;BME280;11456;47.030;15.396;2023-03-31T10:05:48;96649.03;;;19.83;41.19
22580;BME280;11456;47.030;15.396;2023-03-31T10:10:47;96665.59;;;19.58;41.31
22580;BME280;11456;47.030;15.396;2023-03-31T10:16:04;96654.81;;;18.24;45.85
22580;BME280;11456;47.030;15.396;2023-03-31T10:18:35;96658.72;;;18.10;45.94
22580;BME280;11456;47.030;15.396;2023-03-31T10:21:03;96649.47;;;17.61;45.01
22580;BME280;11456;47.030;15.396;2023-03-31T10:23:31;96638.19;;;18.07;46.05
22580;BME280;11456;47.030;15.396;2023-03-31T10:25:59;96628.22;;;17.45;45.80
22580;BME280;11456;47.030;15.396;2023-03-31T10:28:26;96622.19;;;17.36;46.00
22580;BME280;11456;47.030;15.396;2023-03-31T10:30:57;96617.63;;;16.99;46.49
22580;BME280;11456;47.030;15.396;2023-03-31T10:33:26;96610.13;;;17.26;46.11
22580;BME280;11456;47.030;15.396;2023-03-31T10:35:58;96610.50;;;16.98;45.89
22580;BME280;11456;47.030;15.396;2023-03-31T10:38:29;96599.53;;;16.79;46.97
22580;BME280;11456;47.030;15.396;2023-03-31T10:40:57;96590.31;;;16.80;47.96
22580;BME280;11456;47.030;15.396;2023-03-31T10:43:27;96591.19;;;16.74;48.11
22580;BME280;11456;47.030;15.396;2023-03-31T10:45:55;96595.50;;;16.89;48.11
22580;BME280;11456;47.030;15.396;2023-03-31T10:48:26;96600.03;;;16.57;47.43
22580;BME280;11456;47.030;15.396;2023-03-31T10:50:54;96592.69;;;16.70;47.71
22580;BME280;11456;47.030;15.396;2023-03-31T10:53:24;96585.16;;;16.59;47.65
22580;BME280;11456;47.030;15.396;2023-03-31T11:30:21;96481.09;;;19.20;40.59
22580;BME280;11456;47.030;15.396;2023-03-31T11:32:56;96479.47;;;19.19;43.14
22580;BME280;11456;47.030;15.396;2023-03-31T11:43:29;96489.88;;;20.39;43.11
22580;BME280;11456;47.030;15.396;2023-03-31T11:46:04;96481.25;;;21.32;40.65
22580;BME280;11456;47.030;15.396;2023-03-31T11:51:46;96473.47;;;20.39;38.23
22580;BME280;11456;47.030;15.396;2023-03-31T11:54:12;96465.25;;;19.87;38.88
22580;BME280;11456;47.030;15.396;2023-03-31T11:56:41;96468.22;;;19.86;39.11
22580;BME280;11456;47.030;15.396;2023-03-31T11:59:10;96473.44;;;19.52;40.08
22580;BME280;11456;47.030;15.396;2023-03-31T12:01:44;96457.16;;;19.92;39.50
22580;BME280;11456;47.030;15.396;2023-03-31T12:04:19;96457.75;;;20.46;38.95
22580;BME280;11456;47.030;15.396;2023-03-31T12:06:49;96451.31;;;21.81;36.36
22580;BME280;11456;47.030;15.396;2023-03-31T12:09:26;96441.13;;;22.36;36.94
22580;BME280;11456;47.030;15.396;2023-03-31T12:12:00;96442.03;;;22.20;36.32
22580;BME280;11456;47.030;15.396;2023-03-31T12:14:33;96439.84;;;22.22;35.14
22580;BME280;11456;47.030;15.396;2023-03-31T12:17:04;96435.09;;;21.96;35.93
22580;BME280;11456;47.030;15.396;2023-03-31T12:19:36;96425.44;;;22.81;34.96
22580;BME280;11456;47.030;15.396;2023-03-31T12:22:10;96427.72;;;22.40;34.33
22580;BME280;11456;47.030;15.396;2023-03-31T12:24:38;96421.81;;;22.75;34.96
22580;BME280;11456;47.030;15.396;2023-03-31T12:27:18;96415.19;;;23.30;34.20
22580;BME280;11456;47.030;15.396;2023-03-31T12:32:20;96417.94;;;23.67;32.32
22580;BME280;11456;47.030;15.396;2023-03-31T12:34:58;96406.78;;;23.09;32.28
22580;BME280;11456;47.030;15.396;2023-03-31T12:37:50;96405.88;;;21.85;33.89
22580;BME280;11456;47.030;15.396;2023-03-31T12:45:38;96368.88;;;19.92;38.38
22580;BME280;11456;47.030;15.396;2023-03-31T12:53:47;96362.25;;;19.88;37.89
22580;BME280;11456;47.030;15.396;2023-03-31T12:56:18;96348.84;;;20.15;38.04
22580;BME280;11456;47.030;15.396;2023-03-31T12:58:45;96350.72;;;19.46;38.63
22580;BME280;11456;47.030;15.396;2023-03-31T13:08:59;96355.53;;;19.44;38.94
22580;BME280;11456;47.030;15.396;2023-03-31T13:16:30;96342.88;;;18.91;38.60
22580;BME280;11456;47.030;15.396;2023-03-31T13:18:57;96349.00;;;18.63;40.82
22580;BME280;11456;47.030;15.396;2023-03-31T13:21:25;96343.81;;;18.73;39.02
22580;BME280;11456;47.030;15.396;2023-03-31T13:23:51;96339.84;;;18.58;40.80
22580;BME280;11456;47.030;15.396;2023-03-31T13:26:34;96330.16;;;19.08;39.64
22580;BME280;11456;47.030;15.396;2023-03-31T13:29:17;96329.09;;;18.21;40.03
22580;BME280;11456;47.030;15.396;2023-03-31T13:34:27;96312.03;;;18.56;39.77
22580;BME280;11456;47.030;15.396;2023-03-31T13:47:31;96291.91;;;17.85;40.55
22580;BME280;11456;47.030;15.396;2023-03-31T13:52:47;96271.19;;;17.96;39.89
22580;BME280;11456;47.030;15.396;2023-03-31T14:06:23;96243.09;;;17.84;40.42
22580;BME280;11456;47.030;15.396;2023-03-31T14:08:48;96249.59;;;17.83;41.01
22580;BME280;11456;47.030;15.396;2023-03-31T14:13:42;96240.00;;;17.80;41.31
22580;BME280;11456;47.030;15.396;2023-03-31T14:16:08;96244.50;;;17.56;41.33
22580;BME280;11456;47.030;15.396;2023-03-31T14:18:37;96240.63;;;17.34;42.05
22580;BME280;11456;47.030;15.396;2023-03-31T14:21:15;96245.59;;;17.37;41.30
22580;BME280;11456;47.030;15.396;2023-03-31T14:26:37;96237.91;;;17.16;42.12
22580;BME280;11456;47.030;15.396;2023-03-31T14:29:14;96223.94;;;17.12;42.56
22580;BME280;11456;47.030;15.396;2023-03-31T14:36:53;96195.94;;;18.36;40.30
22580;BME280;11456;47.030;15.396;2023-03-31T14:39:25;96197.22;;;18.22;40.90
22580;BME280;11456;47.030;15.396;2023-03-31T14:41:54;96189.06;;;18.22;40.94
22580;BME280;11456;47.030;15.396;2023-03-31T14:44:22;96177.78;;;19.29;39.72
22580;BME280;11456;47.030;15.396;2023-03-31T14:46:50;96175.53;;;18.51;40.40
22580;BME280;11456;47.030;15.396;2023-03-31T14:49:18;96179.78;;;18.00;41.94
22580;BME280;11456;47.030;15.396;2023-03-31T14:51:45;96186.03;;;17.89;42.45
22580;BME280;11456;47.030;15.396;2023-03-31T14:54:14;96189.59;;;17.89;41.98
22580;BME280;11456;47.030;15.396;2023-03-31T14:56:41;96177.75;;;17.84;42.58
22580;BME280;11456;47.030;15.396;2023-03-31T14:59:08;96188.09;;;17.63;42.24
22580;BME280;11456;47.030;15.396;2023-03-31T15:01:35;96196.44;;;17.80;42.19
22580;BME280;11456;47.030;15.396;2023-03-31T15:04:07;96191.72;;;17.99;41.50
22580;BME280;11456;47.030;15.396;2023-03-31T15:06:35;96201.53;;;17.77;42.19
22580;BME280;11456;47.030;15.396;2023-03-31T15:09:05;96195.34;;;17.40;42.68
22580;BME280;11456;47.030;15.396;2023-03-31T15:11:31;96192.50;;;17.65;42.20
22580;BME280;11456;47.030;15.396;2023-03-31T15:13:58;96196.59;;;17.97;42.03
22580;BME280;11456;47.030;15.396;2023-03-31T15:19:03;96203.63;;;17.75;42.86
22580;BME280;11456;47.030;15.396;2023-03-31T15:21:32;96197.31;;;17.62;43.09
22580;BME280;11456;47.030;15.396;2023-03-31T15:24:02;96205.16;;;17.22;44.31
22580;BME280;11456;47.030;15.396;2023-03-31T15:31:40;96212.47;;;16.92;45.77
22580;BME280;11456;47.030;15.396;2023-03-31T15:34:26;96207.72;;;16.88;45.51
22580;BME280;11456;47.030;15.396;2023-03-31T15:36:55;96207.94;;;16.68;46.37
22580;BME280;11456;47.030;15.396;2023-03-31T15:39:23;96209.81;;;16.86;46.08
22580;BME280;11456;47.030;15.396;2023-03-31T15:41:50;96212.78;;;16.59;46.19
22580;BME280;11456;47.030;15.396;2023-03-31T15:44:27;96212.81;;;16.77;45.66
22580;BME280;11456;47.030;15.396;2023-03-31T15:46:57;96203.03;;;16.95;46.45
22580;BME280;11456;47.030;15.396;2023-03-31T15:49:24;96201.88;;;16.84;46.09
22580;BME280;11456;47.030;15.396;2023-03-31T15:51:51;96198.50;;;16.89;45.72
22580;BME280;11456;47.030;15.396;2023-03-31T15:56:59;96193.22;;;16.75;45.30